Time;durP1;ratioP1;P1;durP2;ratioP2;P2;SDS_P1;SDS_P2;PMS_P1;PMS_P2;Temp;Humidity;BMP_temperature;BMP_pressure;BME280_temperature;BME280_humidity;BME280_pressure;Samples;Min_cycle;Max_cycle;Signal;HPM_P1;HPM_P2
2022/06/07 00:01:45;;;;;;;;;10.00;10.00;;;;;;;;5195791;28;8777;-71
2022/06/07 00:04:16;;;;;;;;;9.50;9.50;;;;;;;;5247048;28;8796;-71
2022/06/07 00:07:06;;;;;;;;;10.80;10.80;;;;;;;;5232495;28;8812;-72
2022/06/07 00:09:37;;;;;;;;;9.20;9.20;;;;;;;;5247557;28;8796;-72
2022/06/07 00:12:08;;;;;;;;;8.00;8.00;;;;;;;;5208997;28;8838;-71
2022/06/07 00:14:39;;;;;;;;;11.20;11.20;;;;;;;;5210689;28;8783;-71
2022/06/07 00:17:11;;;;;;;;;10.80;10.80;;;;;;;;5229524;28;8812;-71
2022/06/07 00:19:42;;;;;;;;;13.80;13.80;;;;;;;;5229379;28;9500;-72
2022/06/07 00:22:13;;;;;;;;;10.60;10.60;;;;;;;;5229409;28;8800;-71
2022/06/07 00:24:45;;;;;;;;;11.75;11.75;;;;;;;;5247632;28;8915;-71
2022/06/07 00:27:16;;;;;;;;;12.60;12.60;;;;;;;;5247107;28;12191;-71
2022/06/07 00:30:05;;;;;;;;;17.20;17.20;;;;;;;;5221333;28;8791;-71
2022/06/07 00:32:37;;;;;;;;;20.00;20.00;;;;;;;;5208280;28;8791;-73
2022/06/07 00:35:09;;;;;;;;;20.60;20.60;;;;;;;;5192928;28;8805;-72
2022/06/07 00:37:40;;;;;;;;;21.20;21.00;;;;;;;;5208347;28;8794;-71
2022/06/07 00:40:13;;;;;;;;;18.20;18.20;;;;;;;;5208528;28;8791;-71
2022/06/07 00:42:43;;;;;;;;;15.80;15.80;;;;;;;;5208411;28;8767;-71
2022/06/07 00:45:17;;;;;;;;;15.60;15.20;;;;;;;;5208452;28;8763;-71
2022/06/07 00:48:07;;;;;;;;;14.00;14.00;;;;;;;;5231789;28;8839;-72
2022/06/07 00:50:44;;;;;;;;;12.60;12.60;;;;;;;;5210643;28;8843;-71
2022/06/07 00:53:24;;;;;;;;;17.20;17.20;;;;;;;;5217451;28;9502;-72
2022/06/07 00:55:56;;;;;;;;;15.20;15.20;;;;;;;;5226018;28;8842;-72
2022/06/07 00:58:28;;;;;;;;;16.00;16.00;;;;;;;;5208223;28;8787;-71
2022/06/07 01:01:00;;;;;;;;;12.00;12.00;;;;;;;;5191704;28;8771;-73
2022/06/07 01:03:31;;;;;;;;;9.40;9.40;;;;;;;;5208817;28;8783;-73
2022/06/07 01:11:41;;;;;;;;;13.00;13.00;;;;;;;;5211523;28;8792;-72
2022/06/07 01:14:12;;;;;;;;;8.60;8.60;;;;;;;;5246391;28;8820;-71
2022/06/07 01:16:43;;;;;;;;;13.80;13.80;;;;;;;;5246488;28;8796;-71
2022/06/07 01:19:15;;;;;;;;;17.20;17.20;;;;;;;;5228532;28;8768;-71
2022/06/07 01:21:46;;;;;;;;;14.00;14.00;;;;;;;;5209529;28;8797;-71
2022/06/07 01:24:17;;;;;;;;;14.00;14.00;;;;;;;;5207900;28;8804;-71
2022/06/07 01:27:10;;;;;;;;;14.20;14.20;;;;;;;;5225963;28;8796;-72
2022/06/07 01:29:44;;;;;;;;;14.00;14.00;;;;;;;;5191321;28;8779;-72
2022/06/07 01:32:19;;;;;;;;;14.80;14.80;;;;;;;;5208044;28;9540;-72
2022/06/07 01:34:50;;;;;;;;;15.00;15.00;;;;;;;;5191156;28;8787;-72
2022/06/07 01:37:21;;;;;;;;;10.80;9.60;;;;;;;;5208088;28;8846;-72
2022/06/07 01:42:42;;;;;;;;;14.00;14.00;;;;;;;;5192383;28;8795;-72
2022/06/07 01:45:13;;;;;;;;;15.25;15.25;;;;;;;;5195310;28;8794;-72
2022/06/07 01:47:46;;;;;;;;;10.20;10.20;;;;;;;;5210145;28;8902;-72
2022/06/07 01:50:18;;;;;;;;;16.80;16.80;;;;;;;;5211781;28;8831;-72
2022/06/07 01:52:49;;;;;;;;;20.40;20.40;;;;;;;;5211694;28;9490;-72
2022/06/07 01:55:29;;;;;;;;;17.40;17.40;;;;;;;;5195030;28;9529;-72
2022/06/07 01:58:12;;;;;;;;;11.40;11.40;;;;;;;;5195710;28;9536;-71
2022/06/07 02:00:45;;;;;;;;;14.00;14.00;;;;;;;;5200207;28;8777;-72
2022/06/07 02:03:16;;;;;;;;;10.00;10.00;;;;;;;;5230496;28;8789;-72
2022/06/07 02:06:02;;;;;;;;;17.20;17.20;;;;;;;;5247383;28;8885;-71
2022/06/07 02:08:37;;;;;;;;;11.00;11.00;;;;;;;;5232106;28;8777;-71
2022/06/07 02:11:22;;;;;;;;;15.80;15.80;;;;;;;;5232131;28;8803;-72
2022/06/07 02:14:04;;;;;;;;;14.25;14.25;;;;;;;;5215459;28;8781;-72
2022/06/07 02:16:35;;;;;;;;;12.60;12.60;;;;;;;;5249676;28;8857;-72
2022/06/07 02:19:07;;;;;;;;;13.25;13.25;;;;;;;;5215988;28;8789;-72
2022/06/07 02:21:42;;;;;;;;;16.25;16.25;;;;;;;;5231676;28;8829;-72
2022/06/07 02:24:15;;;;;;;;;16.50;16.50;;;;;;;;5215435;28;8799;-72
2022/06/07 02:26:49;;;;;;;;;16.00;16.00;;;;;;;;5213198;28;8809;-73
2022/06/07 02:29:29;;;;;;;;;6.60;6.40;;;;;;;;5210734;28;8786;-72
2022/06/07 02:32:06;;;;;;;;;15.80;15.80;;;;;;;;5210823;28;8775;-72
2022/06/07 02:34:38;;;;;;;;;14.75;14.75;;;;;;;;5194595;28;8775;-72
2022/06/07 02:37:09;;;;;;;;;15.60;15.60;;;;;;;;5194266;28;8787;-72
2022/06/07 02:39:59;;;;;;;;;16.60;16.60;;;;;;;;5213439;28;8775;-73
2022/06/07 02:42:30;;;;;;;;;16.50;16.50;;;;;;;;5220701;28;8850;-72
2022/06/07 02:45:02;;;;;;;;;15.50;15.00;;;;;;;;5212931;28;8811;-72
2022/06/07 02:47:51;;;;;;;;;16.25;16.00;;;;;;;;5233857;28;8797;-72
2022/06/07 02:50:40;;;;;;;;;14.40;14.40;;;;;;;;5249168;28;8789;-72
2022/06/07 02:53:30;;;;;;;;;16.50;16.50;;;;;;;;5216998;28;8777;-71
2022/06/07 02:56:03;;;;;;;;;18.00;18.00;;;;;;;;5214141;28;8816;-71
2022/06/07 02:58:35;;;;;;;;;17.40;17.40;;;;;;;;5212867;28;9608;-72
2022/06/07 03:01:09;;;;;;;;;19.00;19.00;;;;;;;;5210201;28;8899;-72
2022/06/07 03:03:45;;;;;;;;;17.00;17.00;;;;;;;;5213780;28;8850;-72
2022/06/07 03:06:17;;;;;;;;;17.80;17.80;;;;;;;;5227560;28;8769;-72
2022/06/07 03:08:52;;;;;;;;;16.00;16.00;;;;;;;;5231567;28;8764;-71
2022/06/07 03:11:24;;;;;;;;;16.80;16.80;;;;;;;;5248770;28;8777;-70
2022/06/07 03:13:55;;;;;;;;;16.80;16.80;;;;;;;;5231063;28;8791;-70
2022/06/07 03:16:31;;;;;;;;;18.80;18.80;;;;;;;;5215283;28;8807;-70
2022/06/07 03:19:21;;;;;;;;;15.60;15.60;;;;;;;;5213173;28;8791;-70
2022/06/07 03:21:52;;;;;;;;;16.20;16.20;;;;;;;;5226642;28;8811;-70
2022/06/07 03:24:25;;;;;;;;;18.20;18.20;;;;;;;;5241056;28;8865;-72
2022/06/07 03:26:57;;;;;;;;;15.60;15.60;;;;;;;;5193402;28;9553;-71
2022/06/07 03:29:28;;;;;;;;;15.80;15.80;;;;;;;;5227491;28;9706;-73
2022/06/07 03:32:01;;;;;;;;;17.20;17.20;;;;;;;;5193976;28;8787;-72
2022/06/07 03:34:51;;;;;;;;;14.00;14.00;;;;;;;;5212942;28;8763;-72
2022/06/07 03:37:22;;;;;;;;;15.80;15.80;;;;;;;;5209813;28;8790;-72
2022/06/07 03:39:53;;;;;;;;;17.00;16.75;;;;;;;;5240326;28;8796;-72
2022/06/07 03:42:24;;;;;;;;;32.80;31.80;;;;;;;;5230221;28;11498;-72
2022/06/07 03:44:55;;;;;;;;;18.20;18.20;;;;;;;;5228132;28;8806;-71
2022/06/07 03:47:47;;;;;;;;;11.80;11.40;;;;;;;;5196108;28;8830;-70
2022/06/07 03:50:18;;;;;;;;;18.40;18.40;;;;;;;;5209748;28;8846;-70
2022/06/07 03:53:07;;;;;;;;;15.25;14.75;;;;;;;;5227825;28;9168;-71
2022/06/07 03:55:44;;;;;;;;;15.50;15.50;;;;;;;;5204514;28;8929;-72
2022/06/07 03:58:18;;;;;;;;;10.75;10.75;;;;;;;;5193120;28;8831;-72
2022/06/07 04:00:52;;;;;;;;;11.00;11.00;;;;;;;;5209216;28;8812;-71
2022/06/07 04:03:24;;;;;;;;;15.00;14.75;;;;;;;;5213249;28;8803;-71
2022/06/07 04:06:14;;;;;;;;;10.75;10.75;;;;;;;;5210371;28;8802;-72
2022/06/07 04:08:48;;;;;;;;;10.00;10.00;;;;;;;;5193017;28;9528;-72
2022/06/07 04:11:24;;;;;;;;;10.50;10.50;;;;;;;;5192626;28;8795;-70
2022/06/07 04:14:05;;;;;;;;;10.50;10.50;;;;;;;;5192334;28;8840;-73
2022/06/07 04:16:36;;;;;;;;;9.00;9.00;;;;;;;;5197570;28;8784;-67
2022/06/07 04:19:25;;;;;;;;;6.00;6.00;;;;;;;;5213969;28;8836;-70
2022/06/07 04:21:56;;;;;;;;;8.75;8.75;;;;;;;;5227580;28;8787;-70
2022/06/07 04:24:39;;;;;;;;;11.25;11.25;;;;;;;;5206613;28;8837;-70
2022/06/07 04:27:29;;;;;;;;;11.50;11.25;;;;;;;;5209597;28;8838;-71
2022/06/07 04:30:02;;;;;;;;;10.50;10.50;;;;;;;;5224105;28;8782;-71
2022/06/07 04:32:34;;;;;;;;;8.50;8.50;;;;;;;;5207044;28;8879;-71
2022/06/07 04:35:08;;;;;;;;;9.00;9.00;;;;;;;;5207874;28;8844;-69
2022/06/07 04:37:40;;;;;;;;;5.75;5.75;;;;;;;;5224371;28;8798;-69
2022/06/07 04:40:13;;;;;;;;;7.25;7.25;;;;;;;;5201297;28;8805;-70
2022/06/07 04:42:44;;;;;;;;;6.75;6.75;;;;;;;;5224946;28;8925;-72
2022/06/07 04:45:31;;;;;;;;;10.25;10.25;;;;;;;;5190356;28;8807;-69
2022/06/07 04:48:11;;;;;;;;;8.25;8.25;;;;;;;;5223818;28;8907;-71
2022/06/07 04:51:01;;;;;;;;;4.00;4.00;;;;;;;;5169729;28;8824;-70
2022/06/07 04:53:33;;;;;;;;;2.00;2.00;;;;;;;;5186139;28;8804;-70
2022/06/07 04:56:12;;;;;;;;;4.25;4.25;;;;;;;;5185534;28;8828;-71
2022/06/07 04:58:44;;;;;;;;;6.00;6.00;;;;;;;;5213696;28;8800;-72
2022/06/07 05:01:17;;;;;;;;;6.25;6.25;;;;;;;;5209283;28;8801;-70
2022/06/07 05:03:49;;;;;;;;;5.75;5.75;;;;;;;;5221635;28;8836;-71
2022/06/07 05:06:25;;;;;;;;;6.25;6.25;;;;;;;;5227089;28;8785;-72
2022/06/07 05:09:13;;;;;;;;;5.00;5.00;;;;;;;;5226868;28;8797;-72
2022/06/07 05:11:45;;;;;;;;;5.75;5.75;;;;;;;;5210231;28;8791;-71
2022/06/07 05:14:18;;;;;;;;;6.75;6.75;;;;;;;;5244699;28;8788;-71
2022/06/07 05:16:51;;;;;;;;;6.25;6.25;;;;;;;;5222107;28;9525;-71
2022/06/07 05:19:29;;;;;;;;;8.00;8.00;;;;;;;;5205818;28;9534;-73
2022/06/07 05:22:08;;;;;;;;;8.25;8.25;;;;;;;;5200091;28;8896;-72
2022/06/07 05:24:48;;;;;;;;;5.75;5.75;;;;;;;;5213929;28;8923;-72
2022/06/07 05:27:24;;;;;;;;;6.00;6.00;;;;;;;;5206133;28;8852;-73
2022/06/07 05:29:56;;;;;;;;;5.50;5.50;;;;;;;;5223625;28;8783;-73
2022/06/07 05:32:50;;;;;;;;;5.00;5.00;;;;;;;;5189921;28;8807;-73
2022/06/07 05:35:31;;;;;;;;;6.50;6.50;;;;;;;;5189697;28;9509;-71
2022/06/07 05:38:14;;;;;;;;;5.50;5.50;;;;;;;;5189028;28;8830;-70
2022/06/07 05:40:49;;;;;;;;;4.50;4.50;;;;;;;;5205761;28;8791;-71
2022/06/07 05:43:23;;;;;;;;;7.00;7.00;;;;;;;;5205910;28;8883;-70
2022/06/07 05:45:59;;;;;;;;;6.00;6.00;;;;;;;;5217132;28;8799;-70
2022/06/07 05:48:53;;;;;;;;;6.50;6.50;;;;;;;;5203563;28;8908;-72
2022/06/07 05:51:36;;;;;;;;;7.00;7.00;;;;;;;;5205751;28;8991;-72
2022/06/07 05:54:07;;;;;;;;;8.00;8.00;;;;;;;;5205584;28;8842;-72
2022/06/07 05:56:53;;;;;;;;;;;;;;;;;;;;;
2022/06/07 05:59:24;;;;;;;;;7.50;7.50;;;;;;;;5223957;28;9534;-71
2022/06/07 06:02:14;;;;;;;;;8.00;8.00;;;;;;;;5205206;28;8812;-72
2022/06/07 06:04:46;;;;;;;;;9.00;9.00;;;;;;;;5212114;28;8797;-71
2022/06/07 06:07:18;;;;;;;;;7.25;7.25;;;;;;;;5208242;28;9501;-72
2022/06/07 06:12:52;;;;;;;;;8.50;8.50;;;;;;;;5191286;28;8787;-70
2022/06/07 06:15:24;;;;;;;;;9.00;9.00;;;;;;;;5208554;28;8794;-71
2022/06/07 06:17:56;;;;;;;;;5.75;5.75;;;;;;;;5223805;28;8781;-70
2022/06/07 06:20:40;;;;;;;;;7.75;7.75;;;;;;;;5223903;28;8816;-71
2022/06/07 06:23:22;;;;;;;;;8.50;8.50;;;;;;;;5201434;28;8775;-71
2022/06/07 06:25:53;;;;;;;;;7.00;7.00;;;;;;;;5234969;28;8907;-71
2022/06/07 06:28:25;;;;;;;;;7.00;7.00;;;;;;;;5228139;28;8840;-71
2022/06/07 06:31:05;;;;;;;;;7.75;7.75;;;;;;;;5227271;28;8787;-71
2022/06/07 06:33:44;;;;;;;;;8.00;8.00;;;;;;;;5222133;28;8789;-71
2022/06/07 06:36:18;;;;;;;;;8.50;8.50;;;;;;;;5229819;28;8785;-71
2022/06/07 06:38:49;;;;;;;;;4.50;4.50;;;;;;;;5215024;28;8792;-71
2022/06/07 06:41:21;;;;;;;;;5.00;5.00;;;;;;;;5231285;28;8784;-70
2022/06/07 06:43:54;;;;;;;;;4.00;4.00;;;;;;;;5231390;28;8765;-71
2022/06/07 06:46:34;;;;;;;;;8.50;8.50;;;;;;;;5231696;28;8895;-70
2022/06/07 06:49:07;;;;;;;;;6.25;6.25;;;;;;;;5212377;28;8812;-70
2022/06/07 06:51:41;;;;;;;;;8.75;8.75;;;;;;;;5193534;28;8795;-71
2022/06/07 06:54:15;;;;;;;;;8.00;8.00;;;;;;;;5200849;28;8794;-72
2022/06/07 06:57:10;;;;;;;;;9.25;9.25;;;;;;;;5220005;28;9548;-70
2022/06/07 06:59:42;;;;;;;;;7.50;7.50;;;;;;;;5210383;28;8860;-72
2022/06/07 07:02:13;;;;;;;;;8.25;8.25;;;;;;;;5194673;28;8799;-71
2022/06/07 07:05:12;;;;;;;;;9.25;9.25;;;;;;;;5213390;28;8802;-72
2022/06/07 07:07:46;;;;;;;;;7.25;7.25;;;;;;;;5210726;28;8899;-71
2022/06/07 07:10:23;;;;;;;;;9.50;9.50;;;;;;;;5198829;28;8789;-72
2022/06/07 07:12:55;;;;;;;;;7.25;7.25;;;;;;;;5214048;28;8811;-72
2022/06/07 07:15:28;;;;;;;;;9.25;9.25;;;;;;;;5223172;28;8900;-71
2022/06/07 07:18:07;;;;;;;;;8.75;8.75;;;;;;;;5193403;28;8786;-71
2022/06/07 07:20:57;;;;;;;;;9.50;9.50;;;;;;;;5205175;28;9489;-71
2022/06/07 07:23:31;;;;;;;;;7.25;7.25;;;;;;;;5205784;28;8827;-72
2022/06/07 07:26:22;;;;;;;;;4.00;4.00;;;;;;;;5206344;28;8809;-72
2022/06/07 07:28:54;;;;;;;;;9.25;9.25;;;;;;;;5189100;28;8801;-71
2022/06/07 07:31:44;;;;;;;;;5.00;5.00;;;;;;;;5208434;28;8792;-73
2022/06/07 07:34:34;;;;;;;;;6.75;6.75;;;;;;;;5223429;28;9613;-72
2022/06/07 07:37:23;;;;;;;;;8.00;8.00;;;;;;;;5227100;28;8806;-71
2022/06/07 07:40:01;;;;;;;;;5.00;5.00;;;;;;;;5242112;28;9530;-71
2022/06/07 07:42:35;;;;;;;;;7.50;7.50;;;;;;;;5225722;28;8810;-71
2022/06/07 07:45:26;;;;;;;;;6.25;6.25;;;;;;;;5209370;28;8811;-71
2022/06/07 07:48:16;;;;;;;;;5.50;5.50;;;;;;;;5210138;28;8949;-71
2022/06/07 07:50:50;;;;;;;;;6.25;6.25;;;;;;;;5225023;28;8799;-72
2022/06/07 07:53:22;;;;;;;;;8.00;8.00;;;;;;;;5209136;28;8794;-72
2022/06/07 07:56:12;;;;;;;;;6.00;6.00;;;;;;;;5226743;28;8818;-72
2022/06/07 07:58:47;;;;;;;;;4.00;4.00;;;;;;;;5226966;28;8894;-72
2022/06/07 08:01:23;;;;;;;;;7.25;7.25;;;;;;;;5209007;28;8798;-71
2022/06/07 08:03:57;;;;;;;;;6.00;6.00;;;;;;;;5209027;28;8804;-70
2022/06/07 08:06:36;;;;;;;;;5.75;5.75;;;;;;;;5209766;28;8774;-72
2022/06/07 08:09:08;;;;;;;;;5.25;5.25;;;;;;;;5225821;28;8804;-72
2022/06/07 08:11:59;;;;;;;;;6.00;6.00;;;;;;;;5225513;28;8798;-71
2022/06/07 08:14:29;;;;;;;;;7.50;7.50;;;;;;;;5226560;28;8774;-71
2022/06/07 08:17:03;;;;;;;;;6.00;6.00;;;;;;;;5227512;28;8788;-71
2022/06/07 08:19:37;;;;;;;;;4.00;4.00;;;;;;;;5212841;28;8775;-71
2022/06/07 08:22:21;;;;;;;;;9.25;9.25;;;;;;;;5229303;28;8781;-70
2022/06/07 08:24:54;;;;;;;;;8.50;8.50;;;;;;;;5204998;28;8795;-70
2022/06/07 08:27:25;;;;;;;;;8.33;8.33;;;;;;;;5192165;28;8935;-71
2022/06/07 08:29:56;;;;;;;;;7.00;7.00;;;;;;;;5208852;28;8795;-71
2022/06/07 08:32:29;;;;;;;;;8.75;8.75;;;;;;;;5209804;28;8844;-70
2022/06/07 08:37:56;;;;;;;;;6.75;6.75;;;;;;;;5207934;28;8837;-71
2022/06/07 08:40:40;;;;;;;;;11.00;11.00;;;;;;;;5191680;28;8809;-70
2022/06/07 08:43:29;;;;;;;;;10.75;10.75;;;;;;;;5211750;28;8937;-72
2022/06/07 08:46:02;;;;;;;;;11.25;11.25;;;;;;;;5208279;28;8968;-73
2022/06/07 08:48:33;;;;;;;;;13.00;13.00;;;;;;;;5225943;28;8815;-72
2022/06/07 08:51:04;;;;;;;;;15.00;15.00;;;;;;;;5204021;28;8809;-70
2022/06/07 08:53:38;;;;;;;;;15.33;14.33;;;;;;;;5216722;28;8787;-74
2022/06/07 08:56:14;;;;;;;;;13.00;13.00;;;;;;;;5209789;28;8912;-79
2022/06/07 08:58:52;;;;;;;;;11.00;11.00;;;;;;;;5211380;28;8792;-72
2022/06/07 09:01:23;;;;;;;;;16.00;16.00;;;;;;;;5209184;28;8824;-76
2022/06/07 09:04:02;;;;;;;;;14.50;14.50;;;;;;;;5170752;28;8800;-70
2022/06/07 09:06:37;;;;;;;;;11.75;11.75;;;;;;;;5187254;28;8846;-70
2022/06/07 09:09:10;;;;;;;;;15.75;15.75;;;;;;;;5170969;28;8811;-71
2022/06/07 09:14:44;;;;;;;;;11.75;11.75;;;;;;;;5204867;28;8801;-70
2022/06/07 09:17:19;;;;;;;;;17.75;17.75;;;;;;;;5170889;28;8793;-71
2022/06/07 09:19:51;;;;;;;;;20.25;20.25;;;;;;;;5170561;28;8831;-70
2022/06/07 09:22:38;;;;;;;;;14.00;14.00;;;;;;;;5171778;28;8801;-70
2022/06/07 09:25:15;;;;;;;;;17.75;17.75;;;;;;;;5170873;28;8835;-70
2022/06/07 09:27:46;;;;;;;;;17.00;17.00;;;;;;;;5187006;28;8821;-70
2022/06/07 09:30:19;;;;;;;;;19.00;19.00;;;;;;;;5187114;28;8777;-69
2022/06/07 09:33:26;;;;;;;;;17.25;17.25;;;;;;;;5190546;28;8903;-69
2022/06/07 09:36:34;;;;;;;;;20.60;20.60;;;;;;;;5170906;28;8788;-71
2022/06/07 09:39:43;;;;;;;;;19.60;19.60;;;;;;;;5186661;28;9631;-71
2022/06/07 09:42:15;;;;;;;;;21.60;21.60;;;;;;;;5187130;28;8791;-71
2022/06/07 09:47:54;;;;;;;;;21.75;21.75;;;;;;;;5182158;28;8833;-70
2022/06/07 09:50:34;;;;;;;;;14.75;14.75;;;;;;;;5176113;28;8954;-70
2022/06/07 09:53:15;;;;;;;;;18.75;18.75;;;;;;;;5208788;28;8779;-71
2022/06/07 09:56:23;;;;;;;;;21.50;21.50;;;;;;;;5225970;28;8798;-70
2022/06/07 09:59:10;;;;;;;;;21.00;21.00;;;;;;;;5190499;28;8926;-70
2022/06/07 10:01:55;;;;;;;;;18.75;18.75;;;;;;;;5188005;28;8789;-71
2022/06/07 10:05:04;;;;;;;;;15.00;15.00;;;;;;;;5191115;28;8781;-70
2022/06/07 10:07:58;;;;;;;;;18.00;18.00;;;;;;;;5224959;28;8849;-71
2022/06/07 10:10:46;;;;;;;;;15.25;15.25;;;;;;;;5198359;28;9540;-71
2022/06/07 10:13:27;;;;;;;;;19.00;19.00;;;;;;;;5221593;28;8941;-71
2022/06/07 10:16:18;;;;;;;;;7.25;7.25;;;;;;;;5221160;28;8847;-71
2022/06/07 10:18:55;;;;;;;;;19.75;19.75;;;;;;;;5201309;28;8811;-72
2022/06/07 10:21:46;;;;;;;;;17.25;17.25;;;;;;;;5231840;28;8785;-70
2022/06/07 10:24:25;;;;;;;;;21.25;20.50;;;;;;;;5184389;28;9636;-70
2022/06/07 10:27:01;;;;;;;;;19.25;19.25;;;;;;;;5201490;28;8830;-72
2022/06/07 10:30:04;;;;;;;;;18.75;18.75;;;;;;;;5192733;28;8791;-72
2022/06/07 10:33:02;;;;;;;;;16.25;16.25;;;;;;;;5198756;28;8789;-71
2022/06/07 10:35:51;;;;;;;;;17.25;17.25;;;;;;;;5230553;28;8869;-72
2022/06/07 10:38:29;;;;;;;;;16.67;16.67;;;;;;;;5202382;28;8792;-69
2022/06/07 10:41:09;;;;;;;;;16.25;16.25;;;;;;;;5204256;28;8807;-75
2022/06/07 10:44:06;;;;;;;;;21.25;21.25;;;;;;;;5231534;28;8777;-75
2022/06/07 10:46:57;;;;;;;;;13.50;13.50;;;;;;;;5248844;28;8804;-75
2022/06/07 10:49:32;;;;;;;;;12.00;11.75;;;;;;;;5209709;28;8790;-72
2022/06/07 10:52:25;;;;;;;;;14.75;14.75;;;;;;;;5194025;28;8778;-75
2022/06/07 10:54:56;;;;;;;;;14.75;14.75;;;;;;;;5198423;28;9550;-70
2022/06/07 10:57:49;;;;;;;;;17.25;17.25;;;;;;;;5230878;28;8820;-72
2022/06/07 11:00:38;;;;;;;;;15.25;15.25;;;;;;;;5231344;28;8792;-71
2022/06/07 11:03:23;;;;;;;;;11.25;11.25;;;;;;;;5230824;28;8800;-70
2022/06/07 11:09:20;;;;;;;;;15.25;15.25;;;;;;;;5230404;28;8776;-70
2022/06/07 11:11:54;;;;;;;;;14.00;13.50;;;;;;;;5230834;28;8869;-72
2022/06/07 11:14:27;;;;;;;;;14.75;14.75;;;;;;;;5230419;28;8784;-70
2022/06/07 11:17:20;;;;;;;;;17.25;17.25;;;;;;;;5230198;28;8784;-70
2022/06/07 11:20:29;;;;;;;;;18.25;18.25;;;;;;;;5214627;28;8769;-71
2022/06/07 11:23:01;;;;;;;;;19.25;19.00;;;;;;;;5246679;28;8824;-70
2022/06/07 11:25:35;;;;;;;;;20.75;20.75;;;;;;;;5239091;28;8782;-70
2022/06/07 11:28:25;;;;;;;;;17.75;17.50;;;;;;;;5212367;28;9498;-70
2022/06/07 11:31:22;;;;;;;;;16.50;16.50;;;;;;;;5209513;28;8856;-69
2022/06/07 11:33:53;;;;;;;;;20.20;20.20;;;;;;;;5192104;28;8787;-70
2022/06/07 11:36:34;;;;;;;;;32.20;31.00;;;;;;;;5209372;28;8852;-70
2022/06/07 11:39:18;;;;;;;;;13.50;13.50;;;;;;;;5176732;28;8798;-71
2022/06/07 11:42:13;;;;;;;;;20.75;20.75;;;;;;;;5192919;28;8837;-70
2022/06/07 11:45:43;;;;;;;;;19.60;19.60;;;;;;;;5209778;28;8779;-70
2022/06/07 11:48:20;;;;;;;;;16.00;16.00;;;;;;;;5163474;28;8833;-71
2022/06/07 11:51:15;;;;;;;;;16.75;16.75;;;;;;;;5131424;28;8854;-70
2022/06/07 11:54:04;;;;;;;;;19.00;19.00;;;;;;;;5172521;28;9673;-69
2022/06/07 11:56:41;;;;;;;;;19.00;19.00;;;;;;;;5209315;28;8811;-70
2022/06/07 11:59:20;;;;;;;;;17.25;17.25;;;;;;;;5209411;28;8791;-71
2022/06/07 12:01:53;;;;;;;;;13.25;13.25;;;;;;;;5193032;28;8771;-71
2022/06/07 12:04:28;;;;;;;;;15.25;15.25;;;;;;;;5192795;28;8787;-70
2022/06/07 12:07:25;;;;;;;;;14.50;14.50;;;;;;;;5209240;28;9602;-70
2022/06/07 12:09:57;;;;;;;;;16.50;16.50;;;;;;;;5185788;28;8779;-70
2022/06/07 12:12:34;;;;;;;;;18.50;18.50;;;;;;;;5209481;28;8787;-71
2022/06/07 12:15:17;;;;;;;;;7.00;7.00;;;;;;;;5192785;28;9550;-70
2022/06/07 12:18:20;;;;;;;;;17.00;17.00;;;;;;;;5226775;28;8778;-70
2022/06/07 12:20:59;;;;;;;;;20.20;20.20;;;;;;;;5242937;28;9559;-69
2022/06/07 12:24:01;;;;;;;;;20.60;20.60;;;;;;;;5215420;28;8897;-69
2022/06/07 12:26:35;;;;;;;;;22.75;22.75;;;;;;;;5246736;28;8777;-70
2022/06/07 12:29:26;;;;;;;;;12.50;12.00;;;;;;;;5247060;28;8779;-70
2022/06/07 12:32:04;;;;;;;;;16.50;16.50;;;;;;;;5247730;28;8793;-70
2022/06/07 12:34:36;;;;;;;;;16.75;16.75;;;;;;;;5221301;28;8803;-70
2022/06/07 12:37:10;;;;;;;;;19.00;19.00;;;;;;;;5209605;28;8799;-71
2022/06/07 12:40:03;;;;;;;;;17.00;17.00;;;;;;;;5208108;28;9615;-69
2022/06/07 12:42:45;;;;;;;;;20.00;20.00;;;;;;;;5205852;28;8804;-71
2022/06/07 12:45:37;;;;;;;;;14.40;14.40;;;;;;;;5214657;28;8765;-71
2022/06/07 12:48:58;;;;;;;;;19.50;19.00;;;;;;;;5223623;28;8826;-69
2022/06/07 12:51:36;;;;;;;;;19.75;19.25;;;;;;;;5192276;28;8803;-70
2022/06/07 12:54:22;;;;;;;;;14.75;14.75;;;;;;;;5208244;28;8798;-69
2022/06/07 12:56:55;;;;;;;;;15.50;15.50;;;;;;;;5208024;28;8888;-69
2022/06/07 12:59:29;;;;;;;;;16.00;16.00;;;;;;;;5240902;28;8794;-70
2022/06/07 13:02:02;;;;;;;;;17.50;17.50;;;;;;;;5207966;28;9458;-70
2022/06/07 13:04:35;;;;;;;;;32.60;31.20;;;;;;;;5223550;28;8822;-70
2022/06/07 13:07:09;;;;;;;;;31.00;29.80;;;;;;;;5191487;28;8806;-69
2022/06/07 13:09:40;;;;;;;;;27.80;27.80;;;;;;;;5227575;28;8850;-70
2022/06/07 13:12:16;;;;;;;;;33.00;31.60;;;;;;;;5228688;28;8984;-70
2022/06/07 13:14:55;;;;;;;;;31.80;30.40;;;;;;;;5227962;28;9570;-70
2022/06/07 13:17:31;;;;;;;;;37.60;34.60;;;;;;;;5228694;28;8811;-70
2022/06/07 13:20:04;;;;;;;;;27.00;27.00;;;;;;;;5208767;28;8921;-70
2022/06/07 13:22:54;;;;;;;;;22.20;22.20;;;;;;;;5225706;28;8801;-70
2022/06/07 13:25:31;;;;;;;;;23.60;23.60;;;;;;;;5207132;28;8894;-70
2022/06/07 13:28:05;;;;;;;;;18.20;18.20;;;;;;;;5208139;28;8892;-70
2022/06/07 13:30:41;;;;;;;;;18.40;18.40;;;;;;;;5191355;28;8782;-70
2022/06/07 13:33:21;;;;;;;;;19.80;19.60;;;;;;;;5208024;28;9521;-70
2022/06/07 13:35:57;;;;;;;;;20.20;19.40;;;;;;;;5225102;28;8767;-70
2022/06/07 13:38:30;;;;;;;;;8.60;8.60;;;;;;;;5193432;28;8790;-69
2022/06/07 13:41:18;;;;;;;;;24.60;24.60;;;;;;;;5212694;28;8787;-68
2022/06/07 13:44:00;;;;;;;;;21.60;21.60;;;;;;;;5191869;28;8777;-70
2022/06/07 13:46:36;;;;;;;;;26.40;26.40;;;;;;;;5208773;28;8784;-69
2022/06/07 13:55:24;;;;;;;;;35.60;33.40;;;;;;;;5229428;28;8779;-69
2022/06/07 13:57:55;;;;;;;;;33.40;32.40;;;;;;;;5229205;28;8806;-69
2022/06/07 14:00:49;;;;;;;;;27.20;27.20;;;;;;;;5228521;28;8782;-69
2022/06/07 14:03:26;;;;;;;;;37.40;34.80;;;;;;;;5209303;28;8837;-70
2022/06/07 14:09:45;;;;;;;;;36.60;34.20;;;;;;;;5191138;28;8773;-67
2022/06/07 14:12:36;;;;;;;;;29.00;29.00;;;;;;;;5196965;28;8799;-68
2022/06/07 14:15:19;;;;;;;;;23.40;23.40;;;;;;;;5208966;28;8789;-69
2022/06/07 14:18:02;;;;;;;;;17.00;17.00;;;;;;;;5175427;28;8847;-69
2022/06/07 14:20:59;;;;;;;;;28.00;28.00;;;;;;;;5197554;28;8807;-73
2022/06/07 14:23:34;;;;;;;;;41.00;36.00;;;;;;;;5233856;28;8789;-75
2022/06/07 14:26:09;;;;;;;;;25.20;25.20;;;;;;;;5230893;28;8909;-72
2022/06/07 14:28:41;;;;;;;;;25.80;25.60;;;;;;;;5229613;28;8832;-70
2022/06/07 14:31:24;;;;;;;;;28.20;26.60;;;;;;;;5229076;28;9539;-72
2022/06/07 14:33:58;;;;;;;;;21.80;21.80;;;;;;;;5229095;28;8788;-72
2022/06/07 14:36:34;;;;;;;;;42.20;37.80;;;;;;;;5229790;28;8777;-73
2022/06/07 14:39:09;;;;;;;;;39.40;36.60;;;;;;;;5225556;28;8792;-73
2022/06/07 14:41:50;;;;;;;;;30.80;30.40;;;;;;;;5247168;28;8793;-70
2022/06/07 14:44:21;;;;;;;;;23.00;23.00;;;;;;;;5212895;28;8835;-70
2022/06/07 14:46:52;;;;;;;;;33.80;32.60;;;;;;;;5247283;28;8808;-69
2022/06/07 14:49:31;;;;;;;;;31.40;30.60;;;;;;;;5191598;28;8834;-70
2022/06/07 14:52:05;;;;;;;;;2.40;2.40;;;;;;;;5226760;28;8814;-73
2022/06/07 14:54:41;;;;;;;;;6.00;6.00;;;;;;;;5206096;28;8814;-71
2022/06/07 14:57:21;;;;;;;;;4.00;4.00;;;;;;;;5238988;28;8920;-70
2022/06/07 14:59:54;;;;;;;;;10.20;10.20;;;;;;;;5229473;28;8791;-70
2022/06/07 15:02:27;;;;;;;;;10.00;9.00;;;;;;;;5227962;28;8944;-69
2022/06/07 15:05:06;;;;;;;;;8.00;8.00;;;;;;;;5227694;28;8795;-69
2022/06/07 15:07:54;;;;;;;;;6.75;6.75;;;;;;;;5193690;28;8806;-69
2022/06/07 15:10:26;;;;;;;;;14.00;14.00;;;;;;;;5209432;28;8857;-69
2022/06/07 15:12:58;;;;;;;;;5.25;5.25;;;;;;;;5192893;28;8937;-68
2022/06/07 15:15:30;;;;;;;;;17.00;17.00;;;;;;;;5217679;28;8814;-74
2022/06/07 15:18:02;;;;;;;;;17.40;17.40;;;;;;;;5221061;28;9567;-69
2022/06/07 15:20:34;;;;;;;;;22.00;22.00;;;;;;;;5209218;28;8884;-69
2022/06/07 15:23:16;;;;;;;;;37.40;35.00;;;;;;;;5227598;28;8787;-70
2022/06/07 15:25:56;;;;;;;;;41.80;37.20;;;;;;;;5242405;28;9558;-69
2022/06/07 15:28:28;;;;;;;;;36.00;35.00;;;;;;;;5209532;28;8842;-69
2022/06/07 15:30:59;;;;;;;;;30.00;29.50;;;;;;;;5209490;28;8779;-68
2022/06/07 15:33:30;;;;;;;;;43.75;38.75;;;;;;;;5193614;28;8916;-69
2022/06/07 15:36:22;;;;;;;;;29.00;29.00;;;;;;;;5207064;28;8809;-71
2022/06/07 15:38:54;;;;;;;;;31.20;31.20;;;;;;;;5226773;28;8803;-68
2022/06/07 15:44:17;;;;;;;;;15.60;15.00;;;;;;;;5229636;28;8794;-68
2022/06/07 15:46:50;;;;;;;;;13.80;13.80;;;;;;;;5227069;28;9520;-70
2022/06/07 15:49:30;;;;;;;;;13.40;13.40;;;;;;;;5227085;28;8807;-69
2022/06/07 15:52:05;;;;;;;;;15.60;15.60;;;;;;;;5209665;28;8851;-68
2022/06/07 15:54:36;;;;;;;;;5.60;5.60;;;;;;;;5192947;28;8794;-69
2022/06/07 15:57:10;;;;;;;;;18.00;18.00;;;;;;;;5192436;28;8814;-70
2022/06/07 15:59:41;;;;;;;;;14.80;14.80;;;;;;;;5190594;28;8844;-69
2022/06/07 16:02:15;;;;;;;;;20.75;20.75;;;;;;;;5214522;28;8793;-68
2022/06/07 16:04:46;;;;;;;;;18.60;18.00;;;;;;;;5208273;28;10984;-69
2022/06/07 16:07:19;;;;;;;;;20.50;20.50;;;;;;;;5229348;28;8941;-69
2022/06/07 16:09:50;;;;;;;;;14.60;14.60;;;;;;;;5197134;28;11464;-70
2022/06/07 16:12:21;;;;;;;;;15.75;15.25;;;;;;;;5211816;28;8824;-69
2022/06/07 16:14:52;;;;;;;;;14.60;14.60;;;;;;;;5227898;28;8881;-68
2022/06/07 16:17:24;;;;;;;;;15.00;15.00;;;;;;;;5236532;28;8789;-69
2022/06/07 16:19:55;;;;;;;;;15.00;15.00;;;;;;;;5226922;28;8822;-70
2022/06/07 16:22:25;;;;;;;;;14.75;14.75;;;;;;;;5220953;28;8835;-68